Aérodrome :
LOGIN :

S'inscrire | Disclaimer

   EN    FR    IT 

 










Légende :    VFR   VFR Marginal   IFR   IFR Intensif   IFR Très Intensif
Visi : 
Plafond : 
>= 8 km
>= 3000ft
5 à 8 km
1000 à 3000 ft
1500m à 5 km
500 à 1000 ft
800 à 1500m
200 à 500 ft
< 800m
< 200 ft
Symboles :   Orages  Brouillard  Fortes neiges  Fortes précipitations  Vent > 20 kt
SIGMETs :   Divers  Orages  Givrage  Turbulence  Onde Orograph.  Cendres Volcan.







- Altitude de l'aérodrome : 468 ft
- Code IATA : GRO


LEGE - Girona Costa Brava

METARs EXPIRÉS :
  • 241430Z 18015KT 140V200 9999 FEW035 30/17 Q1015
  • 241400Z 19016KT 9999 FEW030 31/17 Q1016
  • 241330Z 19017KT 150V210 9999 FEW030 30/19 Q1016
  • 241300Z 18018KT 150V210 9999 FEW030 30/19 Q1017
  • 241230Z 18018KT 9999 FEW030 30/18 Q1017
  • 241200Z 18016KT 150V210 9999 FEW025 30/18 Q1017

TAF TAF LEGE
Valide du 23 à 18h jusqu'au 24 à 18h UTC


231700Z 2318/2418 18010KT 9999 FEW030 TX36/2414Z TN23/2406Z
BECMG 2318/2320 VRB03KT
BECMG 2409/2411 18010KT
Pas de NOTAMs connus pour ce terrain.
1 SIGMET publié pour la FIR Barcelona (LECB) :
 
Orages noyés dans la masse
LECB SIGMET 1 VALID 241435/241700 LEVA
LECB BARCELONA FIR/UIR EMBD TS OBS AT 1435Z W OF LINE N4110 E00110 - N4030 E00050 TOP FL420 MOV NE 10KT INTSF=



MET'MAP, la Météo Aéronautique d'un coup d'oeil ! - Copyright ORBIFLY Décembre 2007 - Disclaimer

ORBIFLY MET'MAP TEAM :

Programmation & Développement : Alexandra Zaïnal
Conception & Développement : Baudouin d'Aumeries
Co-Programmation & Développement : Marc-Olivier Méhu
Soutien technique & logistique : Manuel Goepfert

Contact : metmap@orbifly.com




SOURCES & CREDITS :

   NOAA